Gener8 Spyridon — V7BY9 — position and weather

sailwx.info

Track history (hours):
 
Tides and Currents Weather Stations Pressure Air Temp Water Temp Dewpoint Dewpoint Depression Visibility Wind Speed Wind Dir Waves Ship Positions

Gener8 Spyridon

Last reported at 2016-May-23 14:32 UTC. Time now 2016-May-29 07:47 UTC.
Position S 32°30' E 033°06'.

Length 275 m; draft 14.1 m.

Type: Tanker. MMSI: 538001404.

Date/timePositionNaut miles runAvg speedWind from/ knotsBaromVisibWave heightAir tempDewpointWater temp
2016-May-23 14:32S 32°30' E 033°06'1212.8
2016-May-23 13:33S 32°34' E 032°52'1312.7
2016-May-23 12:33S 32°38' E 032°38'1412.8
2016-May-23 11:27S 32°43' E 032°22'1213.0
2016-May-23 10:34S 32°47' E 032°09'1312.9
2016-May-23 09:33S 32°51' E 031°55'1313.2
2016-May-23 08:33S 32°56' E 031°40'1313.2
2016-May-23 07:33S 33°00' E 031°25'1313.3
2016-May-23 06:33S 33°05' E 031°10'1313.3
2016-May-23 05:33S 33°10' E 030°55'60412.5
2016-May-21 05:24S 34°55' E 018°57'  
Track history (hours):
 
Tides and Currents Weather Stations Pressure Air Temp Water Temp Dewpoint Dewpoint Depression Visibility Wind Speed Wind Dir Waves Ship Positions

Gener8 Spyridon

Last reported at 2016-May-23 14:32 UTC. Time now 2016-May-29 07:47 UTC.
Position S 32°30' E 033°06'.

Length 275 m; draft 14.1 m.

Type: Tanker. MMSI: 538001404.

Date/timePositionNaut miles runAvg speedWind from/ knotsBaromVisibWave heightAir tempDewpointWater temp
2016-May-23 14:32S 32°30' E 033°06'1212.8
2016-May-23 13:33S 32°34' E 032°52'1312.7
2016-May-23 12:33S 32°38' E 032°38'1412.8
2016-May-23 11:27S 32°43' E 032°22'1213.0
2016-May-23 10:34S 32°47' E 032°09'1312.9
2016-May-23 09:33S 32°51' E 031°55'1313.2
2016-May-23 08:33S 32°56' E 031°40'1313.2
2016-May-23 07:33S 33°00' E 031°25'1313.3
2016-May-23 06:33S 33°05' E 031°10'1313.3
2016-May-23 05:33S 33°10' E 030°55'60412.5
2016-May-21 05:24S 34°55' E 018°57'  

Dump ship's entire track history